createdAt,value
2019-03-09T00:03:53.823Z,5.70
2019-03-09T00:07:57.536Z,5.61
2019-03-09T00:12:01.357Z,5.62
2019-03-09T00:16:05.483Z,5.76
2019-03-09T00:20:09.200Z,5.79
2019-03-09T00:24:29.814Z,5.76
2019-03-09T00:28:53.340Z,5.79
2019-03-09T00:32:57.003Z,5.71
2019-03-09T00:37:00.558Z,5.63
2019-03-09T00:41:04.131Z,5.67
2019-03-09T00:45:08.565Z,5.76
2019-03-09T00:49:12.177Z,5.81
2019-03-09T00:53:16.103Z,5.77
2019-03-09T00:57:19.714Z,5.76
2019-03-09T01:01:23.641Z,5.78
2019-03-09T01:05:27.351Z,5.65
2019-03-09T01:09:30.962Z,5.70
2019-03-09T01:13:34.679Z,5.77
2019-03-09T01:17:38.409Z,5.87
2019-03-09T01:21:42.110Z,5.93
2019-03-09T01:25:45.827Z,6.07
2019-03-09T01:29:49.544Z,6.02
2019-03-09T01:33:53.260Z,5.85
2019-03-09T01:37:56.874Z,5.70
2019-03-09T01:42:00.589Z,5.75
2019-03-09T01:46:04.306Z,5.65
2019-03-09T01:50:09.289Z,5.65
2019-03-09T01:54:12.895Z,5.50
2019-03-09T01:58:16.587Z,5.50
2019-03-09T02:02:20.297Z,5.56
2019-03-09T02:06:24.133Z,5.56
2019-03-09T02:10:27.728Z,5.46
2019-03-09T02:14:31.459Z,5.42
2019-03-09T02:18:35.058Z,5.36
2019-03-09T02:22:38.675Z,5.39
2019-03-09T02:26:42.388Z,5.34
2019-03-09T02:30:46.006Z,5.40
2019-03-09T02:34:49.616Z,5.30
2019-03-09T02:38:54.903Z,5.30
2019-03-09T02:42:58.689Z,5.30
2019-03-09T02:47:02.313Z,5.24
2019-03-09T02:51:05.922Z,5.33
2019-03-09T02:55:11.195Z,5.31
2019-03-09T02:59:14.883Z,5.40
2019-03-09T03:03:18.598Z,5.48
2019-03-09T03:07:22.212Z,5.44
2019-03-09T03:11:25.830Z,5.45
2019-03-09T03:15:31.313Z,5.41
2019-03-09T03:19:36.022Z,5.41
2019-03-09T03:23:39.740Z,5.50
2019-03-09T03:27:43.378Z,5.44
2019-03-09T03:31:46.968Z,5.53
2019-03-09T03:35:50.586Z,5.53
2019-03-09T03:39:54.217Z,5.52
2019-03-09T03:43:57.896Z,5.42
2019-03-09T03:48:01.745Z,5.50
2019-03-09T03:52:05.444Z,5.53
2019-03-09T03:56:09.060Z,5.48
2019-03-09T04:00:14.834Z,5.51
2019-03-09T04:04:18.538Z,5.57
2019-03-09T04:08:22.151Z,5.51
2019-03-09T04:12:25.786Z,5.51
2019-03-09T04:16:29.305Z,5.54
2019-03-09T04:20:32.993Z,5.61
2019-03-09T04:24:38.349Z,5.62
2019-03-09T04:28:41.978Z,5.59
2019-03-09T04:32:45.574Z,5.63
2019-03-09T04:36:52.114Z,5.60
2019-03-09T04:40:55.773Z,5.58
2019-03-09T04:44:59.386Z,5.62
2019-03-09T04:49:02.999Z,5.66
2019-03-09T04:53:06.611Z,5.64
2019-03-09T04:57:10.230Z,5.62
2019-03-09T05:01:13.841Z,5.65
2019-03-09T05:05:17.384Z,5.67
2019-03-09T05:09:52.914Z,5.70
2019-03-09T05:13:57.451Z,5.66
2019-03-09T05:18:03.932Z,5.70
2019-03-09T05:22:07.751Z,5.71
2019-03-09T05:26:11.473Z,5.69
2019-03-09T05:30:38.437Z,5.76
2019-03-09T05:34:41.962Z,5.78
2019-03-09T05:38:45.549Z,5.77
2019-03-09T05:42:49.165Z,5.85
2019-03-09T05:46:52.881Z,5.81
2019-03-09T05:50:57.212Z,5.85
2019-03-09T05:55:02.723Z,5.91
2019-03-09T05:59:06.387Z,5.87
2019-03-09T06:03:10.156Z,5.92
2019-03-09T06:07:13.827Z,5.99
2019-03-09T06:11:17.536Z,6.06
2019-03-09T06:15:21.143Z,6.06
2019-03-09T06:19:24.653Z,6.14
2019-03-09T06:23:28.482Z,6.24
2019-03-09T06:27:32.097Z,6.30
2019-03-09T06:31:35.708Z,6.28
2019-03-09T06:35:39.320Z,6.28
2019-03-09T06:39:43.008Z,6.21
2019-03-09T06:43:46.751Z,6.16
2019-03-09T06:47:50.362Z,6.55
2019-03-09T06:51:54.083Z,7.99
2019-03-09T06:55:57.695Z,7.42
2019-03-09T07:00:03.180Z,7.08
2019-03-09T07:04:06.766Z,8.24
2019-03-09T07:08:10.361Z,8.60
2019-03-09T07:12:13.921Z,8.96
2019-03-09T07:16:17.508Z,8.63
2019-03-09T07:20:21.220Z,7.73
2019-03-09T07:24:24.843Z,7.73
2019-03-09T07:28:28.446Z,8.60
2019-03-09T07:32:32.205Z,8.22
2019-03-09T07:36:38.543Z,8.06
2019-03-09T07:40:42.201Z,7.62
2019-03-09T07:44:45.773Z,7.31
2019-03-09T07:48:49.591Z,7.85
2019-03-09T07:52:53.317Z,8.43
2019-03-09T07:56:56.822Z,9.08
2019-03-09T08:01:00.435Z,8.51
2019-03-09T08:05:04.062Z,8.38
2019-03-09T08:09:08.271Z,8.46
2019-03-09T08:13:11.859Z,8.64
2019-03-09T08:17:15.411Z,8.61
2019-03-09T08:21:19.021Z,9.28
2019-03-09T08:25:23.957Z,10.71
2019-03-09T08:29:27.581Z,11.22
2019-03-09T08:33:31.538Z,10.31
2019-03-09T08:37:35.106Z,9.78
2019-03-09T08:41:38.617Z,9.89
2019-03-09T08:45:42.243Z,8.99
2019-03-09T08:49:45.848Z,8.24
2019-03-09T08:53:49.459Z,8.11
2019-03-09T08:57:53.017Z,7.94
2019-03-09T09:01:56.831Z,7.74
2019-03-09T09:06:00.606Z,8.05
2019-03-09T09:10:05.380Z,8.13
2019-03-09T09:14:09.987Z,7.99
2019-03-09T09:18:13.521Z,7.92
2019-03-09T09:22:17.230Z,8.29
2019-03-09T09:26:20.730Z,8.05
2019-03-09T09:30:31.503Z,8.00
2019-03-09T09:34:35.224Z,8.52
2019-03-09T09:38:38.816Z,9.32
2019-03-09T09:42:42.447Z,8.80
2019-03-09T09:46:45.979Z,8.42
2019-03-09T09:50:49.572Z,8.10
2019-03-09T09:54:53.192Z,8.03
2019-03-09T09:58:56.804Z,8.03
2019-03-09T10:03:00.515Z,8.19
2019-03-09T10:07:04.139Z,8.53
2019-03-09T10:11:07.746Z,8.68
2019-03-09T10:15:17.606Z,8.70
2019-03-09T10:19:21.217Z,8.95
2019-03-09T10:23:24.832Z,9.73
2019-03-09T10:27:28.465Z,8.90
2019-03-09T10:31:32.061Z,8.49
2019-03-09T10:35:35.674Z,8.37
2019-03-09T10:39:39.289Z,8.65
2019-03-09T10:43:42.805Z,8.91
2019-03-09T10:47:46.430Z,8.78
2019-03-09T10:51:50.129Z,9.46
2019-03-09T10:55:53.957Z,10.47
2019-03-09T10:59:57.547Z,10.75
2019-03-09T11:04:01.278Z,10.45
2019-03-09T11:08:05.299Z,10.41
2019-03-09T11:12:09.021Z,10.69
2019-03-09T11:16:12.735Z,10.57
2019-03-09T11:20:18.216Z,9.89
2019-03-09T11:24:21.819Z,9.72
2019-03-09T11:28:25.415Z,9.86
2019-03-09T11:32:29.138Z,9.43
2019-03-09T11:36:32.750Z,9.95
2019-03-09T11:40:36.362Z,9.99
2019-03-09T11:44:39.891Z,9.82
2019-03-09T11:48:43.591Z,10.25
2019-03-09T11:52:47.252Z,10.24
2019-03-09T11:56:50.922Z,10.16
2019-03-09T12:00:54.636Z,10.17
2019-03-09T12:04:58.156Z,10.02
2019-03-09T12:09:01.762Z,9.99
2019-03-09T12:13:05.476Z,10.05
2019-03-09T12:17:12.750Z,10.43
2019-03-09T12:21:14.367Z,10.71
2019-03-09T12:25:18.475Z,11.48
2019-03-09T12:29:22.084Z,11.77
2019-03-09T12:33:26.201Z,11.27
2019-03-09T12:37:29.942Z,10.68
2019-03-09T12:41:33.839Z,10.28
2019-03-09T12:45:37.461Z,10.24
2019-03-09T12:49:41.078Z,10.44
2019-03-09T12:53:44.615Z,10.94
2019-03-09T12:57:48.305Z,11.46
2019-03-09T13:01:51.917Z,11.68
2019-03-09T13:05:55.540Z,11.52
2019-03-09T13:09:59.143Z,11.19
2019-03-09T13:14:02.738Z,11.28
2019-03-09T13:18:06.308Z,11.14
2019-03-09T13:22:09.987Z,10.86
2019-03-09T13:26:13.711Z,10.60
2019-03-09T13:30:22.457Z,10.32
2019-03-09T13:34:26.052Z,10.30
2019-03-09T13:38:29.662Z,10.11
2019-03-09T13:42:33.275Z,10.05
2019-03-09T13:46:37.033Z,10.04
2019-03-09T13:50:40.726Z,10.31
2019-03-09T13:54:44.350Z,10.58
2019-03-09T13:58:48.483Z,10.72
2019-03-09T14:02:52.164Z,10.75
2019-03-09T14:06:55.778Z,10.80
2019-03-09T14:10:59.393Z,10.52
2019-03-09T14:15:03.011Z,10.77
2019-03-09T14:19:06.731Z,10.74
2019-03-09T14:23:10.341Z,10.39
2019-03-09T14:27:15.169Z,10.34
2019-03-09T14:31:19.101Z,10.29
2019-03-09T14:35:22.643Z,10.06
2019-03-09T14:39:26.329Z,10.27
2019-03-09T14:43:29.943Z,10.26
2019-03-09T14:47:33.657Z,10.03
2019-03-09T14:51:38.610Z,10.18
2019-03-09T14:55:42.320Z,10.18
2019-03-09T14:59:45.880Z,10.01
2019-03-09T15:03:49.445Z,9.71
2019-03-09T15:07:53.161Z,9.62
2019-03-09T15:11:56.784Z,8.87
2019-03-09T15:16:00.392Z,8.51
2019-03-09T15:20:06.069Z,8.56
2019-03-09T15:24:09.807Z,8.49
2019-03-09T15:28:13.330Z,8.48
2019-03-09T15:32:18.219Z,8.52
2019-03-09T15:36:21.979Z,8.72
2019-03-09T15:40:25.973Z,8.75
2019-03-09T15:44:30.701Z,8.50
2019-03-09T15:48:34.568Z,8.37
2019-03-09T15:52:41.312Z,8.28
2019-03-09T15:56:45.076Z,8.03
2019-03-09T16:00:48.719Z,8.03
2019-03-09T16:04:52.483Z,7.82
2019-03-09T16:08:56.185Z,7.57
2019-03-09T16:12:59.797Z,7.42
2019-03-09T16:17:06.370Z,7.31
2019-03-09T16:21:10.085Z,7.07
2019-03-09T16:25:13.862Z,6.90
2019-03-09T16:29:17.416Z,6.94
2019-03-09T16:33:21.028Z,6.98
2019-03-09T16:37:24.644Z,6.99
2019-03-09T16:41:28.172Z,6.86
2019-03-09T16:45:31.768Z,6.90
2019-03-09T16:49:35.503Z,6.67
2019-03-09T16:53:39.102Z,6.67
2019-03-09T16:57:42.745Z,6.60
2019-03-09T17:01:46.427Z,6.61
2019-03-09T17:05:49.965Z,6.65
2019-03-09T17:09:53.493Z,6.60
2019-03-09T17:13:57.168Z,6.61
2019-03-09T17:18:00.885Z,6.57
2019-03-09T17:22:04.498Z,6.57
2019-03-09T17:26:08.112Z,6.55
2019-03-09T17:30:14.775Z,6.65
2019-03-09T17:34:18.310Z,6.61
2019-03-09T17:38:21.924Z,6.65
2019-03-09T17:42:25.650Z,6.59
2019-03-09T17:46:29.255Z,6.58
2019-03-09T17:50:32.966Z,6.73
2019-03-09T17:54:36.584Z,6.69
2019-03-09T17:58:40.196Z,6.62
2019-03-09T18:02:43.790Z,6.64
2019-03-09T18:06:47.556Z,6.48
2019-03-09T18:11:00.664Z,6.43
2019-03-09T18:15:05.929Z,6.36
2019-03-09T18:19:09.543Z,6.30
2019-03-09T18:23:13.047Z,6.18
2019-03-09T18:27:16.683Z,6.13
2019-03-09T18:31:20.222Z,6.14
2019-03-09T18:35:23.715Z,6.07
2019-03-09T18:39:27.271Z,6.04
2019-03-09T18:43:30.904Z,5.93
2019-03-09T18:47:34.518Z,5.78
2019-03-09T18:51:38.240Z,5.60
2019-03-09T18:55:41.892Z,5.45
2019-03-09T18:59:45.564Z,5.29
2019-03-09T19:03:49.690Z,5.17
2019-03-09T19:07:53.306Z,5.12
2019-03-09T19:11:56.924Z,5.02
2019-03-09T19:16:00.530Z,4.94
2019-03-09T19:20:05.375Z,4.87
2019-03-09T19:24:08.991Z,4.89
2019-03-09T19:28:12.604Z,4.87
2019-03-09T19:32:16.317Z,4.78
2019-03-09T19:36:19.942Z,4.72
2019-03-09T19:40:23.853Z,4.64
2019-03-09T19:44:27.574Z,4.53
2019-03-09T19:48:31.307Z,4.41
2019-03-09T19:52:34.902Z,4.39
2019-03-09T19:56:38.518Z,4.47
2019-03-09T20:00:42.131Z,4.35
2019-03-09T20:04:45.742Z,4.31
2019-03-09T20:08:49.355Z,4.41
2019-03-09T20:12:53.078Z,4.49
2019-03-09T20:16:56.684Z,4.52
2019-03-09T20:21:00.608Z,4.58
2019-03-09T20:25:04.748Z,4.68
2019-03-09T20:29:08.346Z,4.71
2019-03-09T20:33:11.959Z,4.64
2019-03-09T20:37:15.585Z,4.66
2019-03-09T20:41:19.188Z,4.60
2019-03-09T20:45:23.379Z,4.65
2019-03-09T20:49:26.933Z,4.77
2019-03-09T20:53:30.521Z,4.63
2019-03-09T20:57:34.156Z,4.66
2019-03-09T21:01:37.767Z,4.78
2019-03-09T21:05:41.372Z,4.77
2019-03-09T21:09:45.015Z,4.77
2019-03-09T21:13:48.550Z,4.75
2019-03-09T21:17:52.134Z,4.72
2019-03-09T21:21:58.707Z,4.72
2019-03-09T21:26:02.424Z,4.65
2019-03-09T21:30:08.123Z,4.60
2019-03-09T21:34:11.840Z,4.48
2019-03-09T21:38:15.411Z,4.50
2019-03-09T21:42:19.029Z,4.43
2019-03-09T21:46:22.758Z,4.48
2019-03-09T21:50:26.463Z,4.42
2019-03-09T21:54:30.176Z,4.44
2019-03-09T21:58:33.788Z,4.37
2019-03-09T22:02:37.503Z,4.40
2019-03-09T22:06:41.324Z,4.42
2019-03-09T22:10:45.044Z,4.42
2019-03-09T22:14:48.758Z,4.41
2019-03-09T22:18:52.375Z,4.36
2019-03-09T22:22:55.982Z,4.34
2019-03-09T22:27:00.413Z,4.32
2019-03-09T22:31:04.031Z,4.29
2019-03-09T22:35:10.714Z,4.26
2019-03-09T22:39:14.551Z,4.21
2019-03-09T22:43:18.248Z,4.17
2019-03-09T22:47:21.917Z,4.12
2019-03-09T22:51:25.480Z,4.12
2019-03-09T22:55:29.301Z,4.08
2019-03-09T22:59:32.934Z,4.11
2019-03-09T23:03:36.624Z,4.06
2019-03-09T23:07:40.242Z,4.04
2019-03-09T23:11:43.955Z,3.93
2019-03-09T23:15:47.568Z,3.96
2019-03-09T23:19:51.216Z,3.97
2019-03-09T23:23:54.898Z,3.94
2019-03-09T23:27:58.519Z,4.05
2019-03-09T23:32:02.136Z,4.10
2019-03-09T23:36:06.167Z,4.20
2019-03-09T23:40:15.395Z,4.21
2019-03-09T23:44:19.043Z,4.31
2019-03-09T23:48:22.636Z,4.31
2019-03-09T23:52:26.551Z,4.20
2019-03-09T23:56:30.158Z,4.11
